Time;durP1;ratioP1;P1;durP2;ratioP2;P2;SDS_P1;SDS_P2;PMS_P1;PMS_P2;Temp;Humidity;BMP_temperature;BMP_pressure;BME280_temperature;BME280_humidity;BME280_pressure;Samples;Min_cycle;Max_cycle;Signal;HPM_P1;HPM_P2
2023/12/08 00:01:28;;;;;;;6.05;3.92;;;2.00;99.90;;;;;;5123443;27;20600;-69
2023/12/08 00:03:54;;;;;;;7.15;3.22;;;2.00;99.90;;;;;;5100028;27;20027;-69
2023/12/08 00:06:20;;;;;;;9.88;3.83;;;1.90;99.90;;;;;;5120106;27;20374;-69
2023/12/08 00:08:46;;;;;;;9.63;3.83;;;1.90;99.90;;;;;;5123838;27;20567;-70
2023/12/08 00:11:11;;;;;;;9.35;3.17;;;1.90;99.90;;;;;;5116065;27;20051;-69
2023/12/08 00:13:37;;;;;;;5.20;3.38;;;1.90;99.90;;;;;;5110087;28;20445;-70
2023/12/08 00:16:03;;;;;;;7.03;2.72;;;1.90;99.90;;;;;;5111290;28;20080;-69
2023/12/08 00:18:29;;;;;;;5.28;2.95;;;1.90;99.90;;;;;;5106980;28;20089;-70
2023/12/08 00:20:56;;;;;;;9.23;4.05;;;1.90;99.90;;;;;;5094264;28;20048;-69
2023/12/08 00:23:22;;;;;;;7.47;3.03;;;1.90;99.90;;;;;;5110943;28;20062;-69
2023/12/08 00:25:48;;;;;;;6.53;3.42;;;1.90;99.90;;;;;;5110996;28;20116;-68
2023/12/08 00:28:13;;;;;;;6.15;3.15;;;1.80;99.90;;;;;;5111092;28;20035;-68
2023/12/08 00:30:40;;;;;;;6.93;2.97;;;1.80;99.90;;;;;;5105390;28;20055;-69
2023/12/08 00:33:06;;;;;;;6.05;3.22;;;1.80;99.90;;;;;;5089556;28;20049;-68
2023/12/08 00:35:32;;;;;;;5.60;2.65;;;1.80;99.90;;;;;;5106348;28;20152;-68
2023/12/08 00:37:58;;;;;;;6.28;3.17;;;1.90;99.90;;;;;;5110509;28;20057;-69
2023/12/08 00:40:27;;;;;;;10.05;4.50;;;1.90;99.90;;;;;;5110905;28;20471;-68
2023/12/08 00:42:53;;;;;;;6.15;3.42;;;1.90;99.90;;;;;;5094006;28;20035;-68
2023/12/08 00:45:19;;;;;;;10.65;3.67;;;1.90;99.90;;;;;;5093604;28;20036;-69
2023/12/08 00:47:45;;;;;;;7.32;3.35;;;1.90;99.90;;;;;;5110744;28;20483;-69
2023/12/08 00:50:11;;;;;;;10.40;4.80;;;1.90;99.90;;;;;;5106713;28;20043;-69
2023/12/08 00:52:37;;;;;;;6.57;3.10;;;1.80;99.90;;;;;;5110805;28;20169;-69
2023/12/08 00:55:03;;;;;;;8.27;2.92;;;1.80;99.90;;;;;;5110379;28;20433;-68
2023/12/08 00:57:28;;;;;;;6.88;3.17;;;1.80;99.90;;;;;;5110697;28;20035;-69
2023/12/08 00:59:54;;;;;;;6.68;2.45;;;1.80;99.90;;;;;;5110654;28;20043;-69
2023/12/08 01:02:20;;;;;;;7.90;4.15;;;1.80;99.90;;;;;;5089151;28;20488;-69
2023/12/08 01:04:46;;;;;;;7.47;3.35;;;1.80;99.90;;;;;;5103077;28;20047;-69
2023/12/08 01:07:12;;;;;;;6.35;3.03;;;1.80;99.90;;;;;;5106373;28;20067;-70
2023/12/08 01:09:37;;;;;;;5.95;3.15;;;1.80;99.90;;;;;;5107901;28;20054;-69
2023/12/08 01:12:04;;;;;;;14.25;4.72;;;1.80;99.90;;;;;;5105218;28;20387;-69
2023/12/08 01:14:30;;;;;;;8.63;3.65;;;1.80;99.90;;;;;;5092221;28;20098;-69
2023/12/08 01:16:56;;;;;;;9.02;3.15;;;1.80;99.90;;;;;;5111727;28;20042;-70
2023/12/08 01:19:21;;;;;;;7.13;3.20;;;1.80;99.90;;;;;;5110430;28;20036;-69
2023/12/08 01:21:47;;;;;;;9.18;2.95;;;1.80;99.90;;;;;;5110374;28;20043;-68
2023/12/08 01:24:13;;;;;;;8.18;4.47;;;1.80;99.90;;;;;;5110556;28;20119;-69
2023/12/08 01:26:43;;;;;;;4.90;2.47;;;1.80;99.90;;;;;;5111334;28;20356;-69
2023/12/08 01:29:10;;;;;;;4.22;2.85;;;1.90;99.90;;;;;;5093675;28;20040;-69
2023/12/08 01:31:35;;;;;;;7.70;3.28;;;1.90;99.90;;;;;;5108710;28;20092;-69
2023/12/08 01:34:01;;;;;;;4.93;3.15;;;1.90;99.90;;;;;;5109595;28;20036;-69
2023/12/08 01:36:27;;;;;;;5.53;3.33;;;1.90;99.90;;;;;;5109834;28;20123;-69
2023/12/08 01:38:53;;;;;;;10.07;3.65;;;1.90;99.90;;;;;;5109208;28;20043;-68
2023/12/08 01:41:19;;;;;;;18.35;4.20;;;1.90;99.90;;;;;;5109519;28;20035;-69
2023/12/08 01:43:45;;;;;;;8.43;4.63;;;1.90;99.90;;;;;;5102564;28;20035;-69
2023/12/08 01:46:19;;;;;;;7.93;3.72;;;1.90;99.90;;;;;;5107587;28;20049;-69
2023/12/08 01:48:46;;;;;;;5.25;3.85;;;1.90;99.90;;;;;;5105873;28;20100;-69
2023/12/08 01:51:14;;;;;;;6.85;3.65;;;1.90;99.90;;;;;;5108956;28;20109;-69
2023/12/08 01:53:41;;;;;;;4.00;2.38;;;1.90;99.90;;;;;;5086651;28;20127;-69
2023/12/08 01:56:09;;;;;;;10.70;3.67;;;2.00;99.90;;;;;;5084361;28;20104;-69
2023/12/08 01:58:36;;;;;;;7.35;4.13;;;2.00;99.90;;;;;;5101753;28;20073;-69
2023/12/08 02:01:07;;;;;;;6.53;3.08;;;2.00;99.90;;;;;;5087018;28;20031;-69
2023/12/08 02:03:36;;;;;;;6.10;3.05;;;2.00;99.90;;;;;;5090896;28;20076;-69
2023/12/08 02:06:02;;;;;;;6.30;3.80;;;2.00;99.90;;;;;;5106862;28;20071;-68
2023/12/08 02:08:29;;;;;;;8.93;3.85;;;2.00;99.90;;;;;;5107275;28;20039;-68
2023/12/08 02:10:55;;;;;;;5.40;2.75;;;2.00;99.90;;;;;;5098825;27;20086;-68
2023/12/08 02:13:21;;;;;;;7.18;4.20;;;2.00;99.90;;;;;;5120779;28;20070;-69
2023/12/08 02:15:53;;;;;;;7.10;3.47;;;2.00;99.90;;;;;;5099688;28;20035;-68
2023/12/08 02:18:21;;;;;;;5.65;2.97;;;2.10;99.90;;;;;;5100409;28;20036;-69
2023/12/08 02:20:47;;;;;;;6.35;3.85;;;2.00;99.90;;;;;;5124139;27;20079;-69
2023/12/08 02:23:13;;;;;;;6.53;2.90;;;2.10;99.90;;;;;;5120616;27;20050;-68
2023/12/08 02:25:39;;;;;;;9.00;3.70;;;2.10;99.90;;;;;;5120412;27;20043;-69
2023/12/08 02:28:06;;;;;;;6.88;3.60;;;2.10;99.90;;;;;;5125028;27;20050;-69
2023/12/08 02:30:32;;;;;;;6.80;3.70;;;2.10;99.90;;;;;;5123237;27;20442;-68
2023/12/08 02:33:10;;;;;;;9.60;4.78;;;2.10;99.90;;;;;;5122192;27;20046;-69
2023/12/08 02:35:42;;;;;;;9.23;4.13;;;2.10;99.90;;;;;;5124512;27;20043;-69
2023/12/08 02:38:09;;;;;;;8.40;3.65;;;2.10;99.90;;;;;;5118205;27;20161;-68
2023/12/08 02:40:35;;;;;;;8.30;3.00;;;2.10;99.90;;;;;;5108293;27;20103;-69
2023/12/08 02:43:05;;;;;;;9.75;4.55;;;2.10;99.90;;;;;;5124273;27;20038;-69
2023/12/08 02:45:30;;;;;;;7.50;3.13;;;2.10;99.90;;;;;;5126703;27;20038;-69
2023/12/08 02:47:56;;;;;;;10.52;3.60;;;2.10;99.90;;;;;;5124813;27;20475;-69
2023/12/08 02:50:22;;;;;;;8.23;4.95;;;2.10;99.90;;;;;;5110905;27;20142;-69
2023/12/08 02:52:48;;;;;;;7.00;3.58;;;2.10;99.90;;;;;;5127760;27;20038;-69
2023/12/08 02:55:14;;;;;;;9.15;3.75;;;2.10;99.90;;;;;;5124657;27;20117;-68
2023/12/08 02:57:40;;;;;;;12.23;4.45;;;2.10;99.90;;;;;;5117803;27;20479;-69
2023/12/08 03:00:07;;;;;;;8.40;3.58;;;2.10;99.90;;;;;;5104999;27;20043;-68
2023/12/08 03:02:33;;;;;;;9.98;3.78;;;2.10;99.90;;;;;;5124365;27;20038;-69
2023/12/08 03:04:58;;;;;;;6.97;2.78;;;2.10;99.90;;;;;;5146848;27;20035;-69
2023/12/08 03:07:24;;;;;;;8.88;4.38;;;2.00;99.90;;;;;;5125192;27;20050;-69
2023/12/08 03:09:50;;;;;;;8.18;3.45;;;2.00;99.90;;;;;;5124498;27;20047;-68
2023/12/08 03:12:16;;;;;;;4.97;3.13;;;1.90;99.90;;;;;;5111606;28;20047;-69
2023/12/08 03:14:42;;;;;;;5.47;3.15;;;1.90;99.90;;;;;;5095425;28;20043;-68
2023/12/08 03:17:07;;;;;;;6.65;4.20;;;1.80;99.90;;;;;;5111946;28;20040;-68
2023/12/08 03:19:33;;;;;;;9.63;3.80;;;1.80;99.90;;;;;;5112245;28;20043;-69
2023/12/08 03:21:59;;;;;;;9.63;4.32;;;1.70;99.90;;;;;;5111806;28;20163;-68
2023/12/08 03:24:25;;;;;;;9.35;4.82;;;1.70;99.90;;;;;;5112599;28;20552;-68
2023/12/08 03:26:51;;;;;;;10.48;4.22;;;1.60;99.90;;;;;;5111342;28;20076;-68
2023/12/08 03:29:17;;;;;;;6.65;3.70;;;1.60;99.90;;;;;;5112441;28;20031;-68
2023/12/08 03:31:43;;;;;;;8.38;4.80;;;1.50;99.90;;;;;;5110140;28;20372;-68
2023/12/08 03:34:09;;;;;;;5.00;2.60;;;1.50;99.90;;;;;;5109914;28;20037;-67
2023/12/08 03:36:35;;;;;;;7.15;4.53;;;1.50;99.90;;;;;;5107826;28;20088;-68
2023/12/08 03:39:01;;;;;;;10.82;4.40;;;1.40;99.90;;;;;;5111575;28;20043;-68
2023/12/08 03:41:26;;;;;;;6.03;3.40;;;1.40;99.90;;;;;;5112467;28;20071;-68
2023/12/08 03:43:52;;;;;;;10.77;4.93;;;1.40;99.90;;;;;;5111874;28;20406;-68
2023/12/08 03:46:18;;;;;;;10.60;5.63;;;1.40;99.90;;;;;;5110942;28;20623;-69
2023/12/08 03:48:44;;;;;;;11.90;4.25;;;1.30;99.90;;;;;;5111421;28;20047;-68
2023/12/08 03:51:10;;;;;;;10.00;4.53;;;1.30;99.90;;;;;;5111062;28;20035;-68
2023/12/08 03:53:36;;;;;;;7.15;3.55;;;1.30;99.90;;;;;;5091539;28;20105;-68
2023/12/08 03:56:02;;;;;;;9.60;4.32;;;1.30;99.90;;;;;;5108116;28;20035;-67
2023/12/08 03:58:29;;;;;;;6.40;3.20;;;1.30;99.90;;;;;;5107357;28;20527;-67
2023/12/08 04:00:55;;;;;;;10.38;3.72;;;1.30;99.90;;;;;;5094447;28;20039;-67
2023/12/08 04:03:20;;;;;;;12.60;4.30;;;1.30;99.90;;;;;;5111635;28;20047;-67
2023/12/08 04:05:46;;;;;;;5.10;3.45;;;1.30;99.90;;;;;;5111811;28;20043;-68
2023/12/08 04:08:12;;;;;;;9.88;4.88;;;1.30;99.90;;;;;;5108868;28;20599;-68
2023/12/08 04:10:38;;;;;;;7.85;3.88;;;1.30;99.90;;;;;;5112244;28;20503;-67
2023/12/08 04:13:03;;;;;;;11.02;4.50;;;1.20;99.90;;;;;;5094610;28;20372;-67
2023/12/08 04:15:29;;;;;;;10.43;3.95;;;1.20;99.90;;;;;;5090425;28;20040;-67
2023/12/08 04:17:55;;;;;;;10.48;5.90;;;1.20;99.90;;;;;;5111071;28;20475;-67
2023/12/08 04:20:21;;;;;;;5.50;3.10;;;1.20;99.90;;;;;;5111395;28;20467;-67
2023/12/08 04:22:46;;;;;;;7.63;4.18;;;1.10;99.90;;;;;;5094077;28;20039;-67
2023/12/08 04:25:13;;;;;;;9.90;3.95;;;1.10;99.90;;;;;;5111153;28;20047;-67
2023/12/08 04:27:39;;;;;;;11.00;4.95;;;1.10;99.90;;;;;;5110720;28;20291;-67
2023/12/08 04:30:05;;;;;;;13.77;4.38;;;1.10;99.90;;;;;;5106007;28;20054;-67
2023/12/08 04:32:32;;;;;;;7.13;3.60;;;1.10;99.90;;;;;;5106389;28;20046;-67
2023/12/08 04:34:58;;;;;;;10.65;4.00;;;1.10;99.90;;;;;;5107677;28;20113;-67
2023/12/08 04:37:23;;;;;;;10.18;5.00;;;1.10;99.90;;;;;;5093802;28;20044;-67
2023/12/08 04:39:49;;;;;;;11.15;5.28;;;1.00;99.90;;;;;;5107045;28;20472;-67
2023/12/08 04:42:15;;;;;;;7.93;4.18;;;1.00;99.90;;;;;;5111246;28;20449;-68
2023/12/08 04:44:42;;;;;;;7.82;4.03;;;1.00;99.90;;;;;;5109327;28;20090;-67
2023/12/08 04:47:09;;;;;;;6.93;4.47;;;1.00;99.90;;;;;;5106918;28;20100;-67
2023/12/08 04:49:34;;;;;;;13.82;6.03;;;1.00;99.90;;;;;;5110153;28;20070;-68
2023/12/08 04:52:00;;;;;;;8.07;4.88;;;1.00;99.90;;;;;;5110726;28;20372;-67
2023/12/08 04:54:26;;;;;;;7.07;3.75;;;1.00;99.90;;;;;;5092991;28;20131;-67
2023/12/08 04:56:52;;;;;;;12.10;4.40;;;1.00;99.90;;;;;;5105796;28;20039;-67
2023/12/08 04:59:18;;;;;;;10.18;4.30;;;1.00;99.90;;;;;;5109111;28;20088;-67
2023/12/08 05:01:44;;;;;;;9.63;4.07;;;1.00;99.90;;;;;;5110009;28;20044;-67
2023/12/08 05:04:09;;;;;;;9.38;5.55;;;1.00;99.90;;;;;;5109754;28;20046;-67
2023/12/08 05:06:36;;;;;;;9.07;4.43;;;1.00;99.90;;;;;;5110069;28;20048;-67
2023/12/08 05:09:03;;;;;;;8.18;3.33;;;0.90;99.90;;;;;;5087419;28;20040;-67
2023/12/08 05:11:29;;;;;;;11.27;6.07;;;1.00;99.90;;;;;;5091814;28;20051;-67
2023/12/08 05:13:56;;;;;;;11.48;5.05;;;1.00;99.90;;;;;;5092975;28;20130;-67
2023/12/08 05:16:22;;;;;;;8.55;4.72;;;1.00;99.90;;;;;;5093293;28;20063;-67
2023/12/08 05:18:48;;;;;;;14.05;6.03;;;1.00;99.90;;;;;;5109726;28;20123;-67
2023/12/08 05:21:13;;;;;;;9.00;3.95;;;1.00;99.90;;;;;;5110300;28;20112;-67
2023/12/08 05:23:39;;;;;;;17.27;6.32;;;1.00;99.90;;;;;;5110023;28;20075;-67
2023/12/08 05:26:05;;;;;;;9.30;5.40;;;1.00;99.90;;;;;;5110125;28;20613;-67
2023/12/08 05:28:31;;;;;;;11.98;4.28;;;1.00;99.90;;;;;;5110160;28;20093;-67
2023/12/08 05:30:57;;;;;;;8.73;4.72;;;1.00;99.90;;;;;;5107119;28;20044;-67
2023/12/08 05:33:23;;;;;;;9.25;3.78;;;1.00;99.90;;;;;;5107329;28;20097;-67
2023/12/08 05:35:49;;;;;;;9.60;4.60;;;1.00;99.90;;;;;;5109933;28;20410;-67
2023/12/08 05:38:14;;;;;;;11.13;5.00;;;1.00;99.90;;;;;;5110114;28;20395;-67
2023/12/08 05:40:40;;;;;;;9.27;4.50;;;1.00;99.90;;;;;;5109496;28;20394;-67
2023/12/08 05:43:06;;;;;;;9.57;4.78;;;1.00;99.90;;;;;;5108892;28;20035;-67
2023/12/08 05:45:32;;;;;;;11.32;5.20;;;1.00;99.90;;;;;;5092018;28;20505;-67
2023/12/08 05:47:58;;;;;;;9.13;4.82;;;1.00;99.90;;;;;;5108904;28;20048;-67
2023/12/08 05:50:23;;;;;;;8.35;4.45;;;1.00;99.90;;;;;;5108935;28;20199;-67
2023/12/08 05:52:49;;;;;;;12.07;4.72;;;1.00;99.90;;;;;;5108972;28;20039;-67
2023/12/08 05:55:15;;;;;;;8.60;5.20;;;1.00;99.90;;;;;;5105789;28;20032;-67
2023/12/08 05:57:41;;;;;;;12.60;4.63;;;1.00;99.90;;;;;;5109263;28;20050;-67
2023/12/08 06:00:10;;;;;;;15.55;5.95;;;1.00;99.90;;;;;;5109494;28;20039;-67
2023/12/08 06:02:36;;;;;;;8.88;4.15;;;1.00;99.90;;;;;;5113740;28;20051;-67
2023/12/08 06:05:02;;;;;;;8.65;4.10;;;1.00;99.90;;;;;;5113367;28;20036;-67
2023/12/08 06:07:28;;;;;;;7.10;4.10;;;1.00;99.90;;;;;;5113885;28;20353;-67
2023/12/08 06:09:53;;;;;;;9.98;4.03;;;1.00;99.90;;;;;;5113886;27;20058;-68
2023/12/08 06:12:19;;;;;;;8.82;4.72;;;0.90;99.90;;;;;;5120845;27;20382;-67
2023/12/08 06:14:45;;;;;;;6.97;3.90;;;0.90;99.90;;;;;;5126985;27;20054;-67
2023/12/08 06:17:11;;;;;;;7.53;3.70;;;0.90;99.90;;;;;;5125720;27;20032;-67
2023/12/08 06:19:37;;;;;;;13.48;5.25;;;0.90;99.90;;;;;;5121196;27;20042;-67
2023/12/08 06:22:03;;;;;;;8.48;4.22;;;0.90;99.90;;;;;;5122205;27;20640;-67
2023/12/08 06:24:29;;;;;;;7.05;4.03;;;0.90;99.90;;;;;;5126859;27;20118;-67
2023/12/08 06:26:55;;;;;;;8.93;4.55;;;0.90;99.90;;;;;;5125016;27;20352;-67
2023/12/08 06:29:20;;;;;;;13.10;4.68;;;0.90;99.90;;;;;;5123083;27;20039;-67
2023/12/08 06:31:46;;;;;;;6.63;3.85;;;0.90;99.90;;;;;;5103452;27;20073;-67
2023/12/08 06:34:12;;;;;;;8.43;4.63;;;0.90;99.90;;;;;;5118904;27;20031;-66
2023/12/08 06:36:48;;;;;;;13.13;5.18;;;0.90;99.90;;;;;;5123674;27;20116;-67
2023/12/08 06:39:16;;;;;;;13.98;5.00;;;0.90;99.90;;;;;;5124626;27;20666;-66
2023/12/08 06:41:42;;;;;;;8.88;4.68;;;0.90;99.90;;;;;;5103475;27;20058;-67
2023/12/08 06:44:08;;;;;;;10.82;5.18;;;0.90;99.90;;;;;;5123697;27;20096;-67
2023/12/08 06:46:33;;;;;;;9.48;4.85;;;0.90;99.90;;;;;;5121762;27;20043;-67
2023/12/08 06:48:59;;;;;;;11.73;5.72;;;0.90;99.90;;;;;;5122930;27;20039;-67
2023/12/08 06:51:25;;;;;;;7.20;4.47;;;1.00;99.90;;;;;;5125484;27;20038;-67
2023/12/08 06:53:51;;;;;;;11.38;4.63;;;1.00;99.90;;;;;;5124538;27;20035;-67
2023/12/08 06:56:17;;;;;;;12.75;5.90;;;1.00;99.90;;;;;;5124238;27;20039;-67
2023/12/08 06:58:42;;;;;;;11.90;4.30;;;1.00;99.90;;;;;;5107372;27;20456;-67
2023/12/08 07:01:08;;;;;;;9.18;4.80;;;1.00;99.90;;;;;;5125120;27;20035;-67
2023/12/08 07:03:34;;;;;;;12.05;5.32;;;1.10;99.90;;;;;;5117769;27;20200;-67
2023/12/08 07:06:00;;;;;;;13.77;6.10;;;1.10;99.90;;;;;;5117289;27;20042;-67
2023/12/08 07:08:25;;;;;;;8.02;4.82;;;1.10;99.90;;;;;;5118988;27;20087;-67
2023/12/08 07:10:51;;;;;;;16.60;5.88;;;1.00;99.90;;;;;;5122652;27;20487;-67
2023/12/08 07:13:17;;;;;;;13.45;5.25;;;1.00;99.90;;;;;;5121690;27;20364;-67
2023/12/08 07:15:43;;;;;;;7.28;3.83;;;1.10;99.90;;;;;;5124314;27;20043;-67
2023/12/08 07:18:08;;;;;;;12.07;5.38;;;1.00;99.90;;;;;;5124432;27;20498;-67
2023/12/08 07:20:34;;;;;;;10.23;5.30;;;1.00;99.90;;;;;;5124428;27;20043;-67
2023/12/08 07:23:01;;;;;;;10.27;4.95;;;1.10;99.90;;;;;;5124063;27;20035;-68
2023/12/08 07:25:26;;;;;;;8.07;3.90;;;1.10;99.90;;;;;;5124035;27;20043;-67
2023/12/08 07:27:52;;;;;;;11.35;5.03;;;1.10;99.90;;;;;;5124310;27;20035;-67
2023/12/08 07:30:21;;;;;;;7.57;4.40;;;1.10;99.90;;;;;;5119276;27;20043;-67
2023/12/08 07:32:47;;;;;;;10.82;4.25;;;1.10;99.90;;;;;;5123317;27;20050;-67
2023/12/08 07:35:12;;;;;;;13.80;6.20;;;1.10;99.90;;;;;;5120071;27;20715;-67
2023/12/08 07:37:41;;;;;;;9.80;3.85;;;1.10;99.90;;;;;;5119881;27;20122;-67
2023/12/08 07:40:09;;;;;;;15.65;6.72;;;1.10;99.90;;;;;;5123911;27;20031;-67
2023/12/08 07:42:36;;;;;;;11.70;5.38;;;1.10;99.90;;;;;;5123782;27;20039;-67
2023/12/08 07:45:04;;;;;;;17.20;6.95;;;1.10;99.90;;;;;;5115416;27;20126;-67
2023/12/08 07:47:29;;;;;;;16.60;5.43;;;1.10;99.90;;;;;;5124086;27;20062;-67
2023/12/08 07:49:55;;;;;;;11.23;5.47;;;1.10;99.90;;;;;;5123825;27;20489;-67
2023/12/08 07:52:21;;;;;;;12.18;4.97;;;1.10;99.90;;;;;;5124464;27;20027;-67
2023/12/08 07:54:47;;;;;;;10.30;5.10;;;1.20;99.90;;;;;;5123048;27;20112;-67
2023/12/08 07:57:13;;;;;;;11.77;5.78;;;1.10;99.90;;;;;;5104559;27;20035;-67
2023/12/08 07:59:38;;;;;;;9.85;4.63;;;1.10;99.90;;;;;;5123173;27;20762;-68
2023/12/08 08:02:04;;;;;;;10.40;4.80;;;1.10;99.90;;;;;;5123276;27;20035;-67
2023/12/08 08:04:30;;;;;;;9.93;4.72;;;1.10;99.90;;;;;;5123576;27;20375;-68
2023/12/08 08:06:56;;;;;;;12.48;6.00;;;1.10;99.90;;;;;;5103078;28;20043;-67
2023/12/08 08:09:22;;;;;;;15.90;7.18;;;1.10;99.90;;;;;;5119131;27;20432;-67
2023/12/08 08:11:48;;;;;;;8.13;4.28;;;1.10;99.90;;;;;;5120337;27;20047;-67
2023/12/08 08:14:14;;;;;;;10.75;4.95;;;1.10;99.90;;;;;;5106706;27;20049;-67
2023/12/08 08:16:40;;;;;;;10.68;5.35;;;1.10;99.90;;;;;;5101983;27;20082;-67
2023/12/08 08:19:05;;;;;;;15.02;5.18;;;1.10;99.90;;;;;;5123268;27;20039;-67
2023/12/08 08:21:31;;;;;;;19.48;5.85;;;1.20;99.90;;;;;;5102398;27;20110;-67
2023/12/08 08:23:57;;;;;;;12.23;5.75;;;1.20;99.90;;;;;;5122396;27;20038;-67
2023/12/08 08:26:24;;;;;;;13.55;5.57;;;1.20;99.90;;;;;;5122720;27;20062;-67
2023/12/08 08:28:50;;;;;;;16.42;6.70;;;1.20;99.90;;;;;;5118517;27;20039;-67
2023/12/08 08:31:19;;;;;;;11.50;4.90;;;1.20;99.90;;;;;;5098397;27;20046;-66
2023/12/08 08:33:45;;;;;;;16.20;5.63;;;1.20;99.90;;;;;;5103296;27;20047;-67
2023/12/08 08:36:11;;;;;;;14.93;6.15;;;1.20;99.90;;;;;;5122414;27;20050;-67
2023/12/08 08:38:38;;;;;;;9.50;4.30;;;1.20;99.90;;;;;;5093000;27;20537;-66
2023/12/08 08:41:04;;;;;;;10.07;4.70;;;1.20;99.90;;;;;;5119186;27;20567;-66
2023/12/08 08:43:31;;;;;;;7.93;3.67;;;1.20;99.90;;;;;;5122026;27;20043;-67
2023/12/08 08:45:57;;;;;;;13.35;5.13;;;1.20;99.90;;;;;;5113635;27;20039;-66
2023/12/08 08:48:23;;;;;;;10.10;5.45;;;1.30;99.90;;;;;;5104060;27;20035;-66
2023/12/08 08:50:49;;;;;;;14.60;6.38;;;1.30;99.90;;;;;;5121889;27;20039;-66
2023/12/08 08:53:18;;;;;;;11.77;5.57;;;1.30;99.90;;;;;;5116563;27;20038;-66
2023/12/08 08:55:45;;;;;;;4.65;3.25;;;1.30;99.90;;;;;;5101771;27;20071;-66
2023/12/08 08:58:12;;;;;;;10.30;4.85;;;1.30;99.90;;;;;;5124478;27;20035;-66
2023/12/08 09:00:38;;;;;;;10.18;4.80;;;1.30;99.90;;;;;;5113887;27;20036;-66
2023/12/08 09:03:03;;;;;;;8.30;4.25;;;1.30;99.90;;;;;;5125704;27;20096;-66
2023/12/08 09:05:30;;;;;;;13.85;5.43;;;1.30;99.90;;;;;;5104629;27;20035;-66
2023/12/08 09:07:56;;;;;;;9.23;4.47;;;1.30;99.90;;;;;;5119526;27;20047;-66
2023/12/08 09:10:22;;;;;;;13.55;5.55;;;1.30;99.90;;;;;;5118313;27;20484;-66
2023/12/08 09:12:48;;;;;;;10.35;5.47;;;1.40;99.90;;;;;;5110262;28;20047;-66
2023/12/08 09:15:14;;;;;;;14.82;5.90;;;1.40;99.90;;;;;;5109661;28;20558;-66
2023/12/08 09:17:41;;;;;;;10.55;5.60;;;1.40;99.90;;;;;;5110085;28;20075;-66
2023/12/08 09:20:13;;;;;;;9.20;4.20;;;1.40;99.90;;;;;;5109854;28;20031;-66
2023/12/08 09:22:42;;;;;;;10.70;5.30;;;1.40;99.90;;;;;;5108378;28;20035;-66
2023/12/08 09:25:08;;;;;;;11.07;4.50;;;1.40;99.90;;;;;;5087212;28;20039;-66
2023/12/08 09:27:34;;;;;;;8.07;4.72;;;1.40;99.90;;;;;;5100613;28;20048;-66
2023/12/08 09:30:00;;;;;;;6.90;4.30;;;1.50;99.90;;;;;;5082581;28;20043;-66
2023/12/08 09:32:27;;;;;;;11.02;4.88;;;1.40;99.90;;;;;;5105255;28;20044;-66
2023/12/08 09:34:52;;;;;;;10.02;5.60;;;1.50;99.90;;;;;;5108339;28;20047;-66
2023/12/08 09:37:18;;;;;;;9.13;5.30;;;1.50;99.90;;;;;;5105111;28;20092;-66
2023/12/08 09:39:44;;;;;;;11.52;5.05;;;1.50;99.90;;;;;;5092264;28;20046;-66
2023/12/08 09:42:19;;;;;;;8.38;4.85;;;1.50;99.90;;;;;;5092750;28;20023;-66
2023/12/08 09:44:44;;;;;;;12.98;6.10;;;1.60;99.90;;;;;;5109418;28;20051;-66
2023/12/08 09:47:12;;;;;;;9.90;4.15;;;1.50;99.90;;;;;;5092153;28;20089;-67
2023/12/08 09:49:44;;;;;;;8.07;4.72;;;1.60;99.90;;;;;;5105603;28;20108;-66
2023/12/08 09:52:14;;;;;;;14.82;5.30;;;1.60;99.90;;;;;;5109111;28;20048;-66
2023/12/08 09:54:40;;;;;;;9.35;5.10;;;1.60;99.90;;;;;;5105066;28;20119;-66
2023/12/08 09:57:09;;;;;;;11.75;6.38;;;1.70;99.90;;;;;;5105150;28;20034;-67
2023/12/08 09:59:37;;;;;;;11.52;6.20;;;1.70;99.90;;;;;;5107726;28;20089;-67
2023/12/08 10:02:03;;;;;;;11.77;5.60;;;1.70;99.90;;;;;;5107539;28;20565;-67
2023/12/08 10:04:29;;;;;;;16.65;5.90;;;1.70;99.90;;;;;;5085350;28;20048;-67
2023/12/08 10:07:03;;;;;;;12.48;5.40;;;1.70;99.90;;;;;;5099725;28;20039;-67
2023/12/08 10:09:30;;;;;;;10.88;5.57;;;1.70;99.90;;;;;;5101366;28;20042;-66
2023/12/08 10:11:56;;;;;;;13.05;6.30;;;1.80;99.90;;;;;;5107119;27;20061;-66
2023/12/08 10:14:26;;;;;;;13.25;5.43;;;1.80;99.90;;;;;;5083528;27;20395;-66
2023/12/08 10:16:53;;;;;;;11.18;5.85;;;1.80;99.90;;;;;;5112262;27;20045;-67
2023/12/08 10:19:21;;;;;;;12.98;5.57;;;1.80;99.90;;;;;;5124027;27;20158;-67
2023/12/08 10:22:01;;;;;;;16.85;6.15;;;1.80;99.90;;;;;;5123448;27;20135;-66
2023/12/08 10:24:30;;;;;;;12.40;5.32;;;1.80;99.90;;;;;;5098445;27;20031;-66
2023/12/08 10:27:01;;;;;;;13.57;6.63;;;1.90;99.90;;;;;;5106496;27;20038;-67
2023/12/08 10:29:33;;;;;;;15.25;7.07;;;1.90;99.90;;;;;;5106041;28;20113;-67
2023/12/08 10:32:00;;;;;;;10.45;6.00;;;1.90;99.90;;;;;;5106738;27;20050;-67
2023/12/08 10:34:27;;;;;;;19.10;6.63;;;1.90;99.90;;;;;;5089926;27;20110;-66
2023/12/08 10:36:56;;;;;;;14.60;6.28;;;1.90;99.90;;;;;;5101469;27;20035;-66
2023/12/08 10:39:23;;;;;;;21.08;7.07;;;1.90;99.90;;;;;;5100002;28;20036;-66
2023/12/08 10:41:53;;;;;;;13.10;7.07;;;2.00;99.90;;;;;;5109127;27;20037;-66
2023/12/08 10:44:21;;;;;;;8.18;5.10;;;1.90;99.90;;;;;;5098872;27;20039;-67
2023/12/08 10:46:48;;;;;;;14.23;6.43;;;2.00;99.90;;;;;;5112909;27;20054;-67
2023/12/08 10:49:19;;;;;;;12.18;5.93;;;2.00;99.90;;;;;;5101429;27;20050;-66
2023/12/08 10:51:49;;;;;;;13.70;6.43;;;2.00;99.90;;;;;;5124471;27;20047;-67
2023/12/08 10:54:18;;;;;;;17.00;5.53;;;2.00;99.90;;;;;;5101428;27;20046;-67
2023/12/08 10:56:46;;;;;;;15.25;6.20;;;2.10;99.90;;;;;;5124510;27;20031;-66
2023/12/08 10:59:28;;;;;;;14.55;6.72;;;2.10;99.90;;;;;;5107865;27;20069;-67
2023/12/08 11:01:55;;;;;;;18.63;7.32;;;2.10;99.90;;;;;;5118219;27;20039;-67
2023/12/08 11:04:21;;;;;;;10.90;4.38;;;2.10;99.90;;;;;;5126494;27;20039;-67
2023/12/08 11:07:02;;;;;;;18.08;6.95;;;2.10;99.90;;;;;;5106615;27;20062;-66
2023/12/08 11:09:34;;;;;;;10.35;5.95;;;2.10;99.90;;;;;;5112493;27;20107;-67
2023/12/08 11:12:23;;;;;;;9.07;5.57;;;2.20;99.90;;;;;;5111497;28;20048;-67
2023/12/08 11:15:04;;;;;;;12.43;6.32;;;2.20;99.90;;;;;;5111296;28;20043;-67
2023/12/08 11:17:30;;;;;;;13.57;5.55;;;2.20;99.90;;;;;;5111948;28;20406;-67
2023/12/08 11:19:58;;;;;;;10.38;4.93;;;2.20;99.90;;;;;;5112420;28;20039;-67
2023/12/08 11:22:25;;;;;;;13.80;7.95;;;2.20;99.90;;;;;;5089080;28;20762;-68
2023/12/08 11:24:56;;;;;;;17.05;6.32;;;2.30;99.90;;;;;;5110902;28;20039;-67
2023/12/08 11:27:49;;;;;;;16.48;6.45;;;2.30;99.90;;;;;;5093971;28;20039;-68
2023/12/08 11:30:48;;;;;;;10.35;6.70;;;2.30;99.90;;;;;;5104738;28;20039;-67
2023/12/08 11:33:23;;;;;;;15.15;6.47;;;2.30;99.90;;;;;;5093012;28;20059;-67
2023/12/08 11:35:52;;;;;;;11.90;5.32;;;2.40;99.90;;;;;;5090876;28;20484;-68
2023/12/08 11:38:28;;;;;;;10.38;4.07;;;2.40;99.90;;;;;;5110904;28;20047;-67
2023/12/08 11:40:54;;;;;;;9.82;6.30;;;2.40;99.90;;;;;;5092597;28;20091;-68
2023/12/08 11:43:26;;;;;;;15.63;5.90;;;2.40;99.90;;;;;;5111283;28;20077;-68
2023/12/08 11:45:52;;;;;;;17.30;7.35;;;2.40;99.90;;;;;;5093901;28;20062;-67
2023/12/08 11:48:21;;;;;;;15.77;7.47;;;2.50;99.90;;;;;;5092606;28;20051;-67
2023/12/08 11:50:50;;;;;;;25.17;6.82;;;2.50;99.90;;;;;;5110760;28;20101;-67
2023/12/08 11:53:17;;;;;;;18.65;7.40;;;2.50;99.90;;;;;;5110548;28;20043;-67
2023/12/08 11:55:47;;;;;;;15.57;7.88;;;2.50;99.90;;;;;;5110364;28;20047;-67
2023/12/08 11:58:20;;;;;;;12.20;6.78;;;2.50;99.90;;;;;;5109848;28;20097;-67
2023/12/08 12:00:49;;;;;;;17.00;7.93;;;2.60;99.90;;;;;;5110748;28;20047;-67
2023/12/08 12:03:18;;;;;;;16.27;7.13;;;2.60;99.90;;;;;;5093855;28;20043;-67
2023/12/08 12:05:49;;;;;;;11.13;6.35;;;2.60;99.90;;;;;;5110541;28;20043;-67
2023/12/08 12:08:26;;;;;;;18.08;7.18;;;2.70;99.90;;;;;;5093347;28;20505;-67
2023/12/08 12:11:06;;;;;;;15.10;6.78;;;2.70;99.90;;;;;;5089853;28;20564;-67
2023/12/08 12:13:48;;;;;;;18.75;8.27;;;2.70;99.90;;;;;;5109758;28;20053;-67
2023/12/08 12:16:18;;;;;;;15.55;6.88;;;2.70;99.90;;;;;;5110186;28;20035;-67
2023/12/08 12:18:44;;;;;;;;;;;2.70;99.90;;;;;;5107356;28;20118;-67
2023/12/08 12:21:16;;;;;;;12.38;5.10;;;2.70;99.90;;;;;;5109361;28;20374;-66
2023/12/08 12:24:19;;;;;;;13.02;6.07;;;2.70;99.90;;;;;;5109664;28;20099;-67
2023/12/08 12:27:27;;;;;;;14.48;6.60;;;2.70;99.90;;;;;;5109442;28;20043;-67
2023/12/08 12:29:53;;;;;;;18.02;6.63;;;2.80;99.90;;;;;;5091376;28;20039;-66
2023/12/08 12:32:19;;;;;;;10.25;5.05;;;2.80;99.90;;;;;;5103623;28;20428;-67
2023/12/08 12:34:45;;;;;;;16.80;7.05;;;2.80;99.90;;;;;;5087652;28;20108;-66
2023/12/08 12:37:11;;;;;;;17.25;6.35;;;2.90;99.90;;;;;;5110279;28;20084;-67
2023/12/08 12:39:38;;;;;;;18.63;7.30;;;2.80;99.90;;;;;;5109997;28;20479;-67
2023/12/08 12:42:06;;;;;;;16.08;6.22;;;2.90;99.90;;;;;;5111228;28;20051;-66
2023/12/08 12:44:40;;;;;;;12.15;6.47;;;2.90;99.90;;;;;;5092562;28;20047;-67
2023/12/08 12:47:09;;;;;;;16.65;7.65;;;2.90;99.90;;;;;;5092710;28;20067;-67
2023/12/08 12:49:38;;;;;;;15.98;6.68;;;2.90;99.90;;;;;;5109786;28;20168;-67
2023/12/08 12:52:26;;;;;;;17.05;5.75;;;2.90;99.90;;;;;;5109890;28;20368;-67
2023/12/08 12:54:55;;;;;;;20.42;6.97;;;2.90;99.90;;;;;;5110091;28;20044;-67